Time;durP1;ratioP1;P1;durP2;ratioP2;P2;SDS_P1;SDS_P2;PMS_P1;PMS_P2;Temp;Humidity;BMP_temperature;BMP_pressure;BME280_temperature;BME280_humidity;BME280_pressure;Samples;Min_cycle;Max_cycle;Signal;HPM_P1;HPM_P2
2024/03/25 00:00:27;;;;;;;12.85;4.10;;;;;;;;;;6184244;23;20009;-94
2024/03/25 00:02:52;;;;;;;13.50;3.45;;;;;;;;;;6159663;23;19997;-94
2024/03/25 00:05:22;;;;;;;10.40;3.47;;;;;;;;;;6159022;23;20013;-94
2024/03/25 00:07:47;;;;;;;8.50;3.35;;;;;;;;;;6159742;23;20135;-94
2024/03/25 00:10:12;;;;;;;13.35;4.32;;;;;;;;;;6184079;23;20332;-95
2024/03/25 00:12:38;;;;;;;11.97;3.60;;;;;;;;;;6159724;23;20001;-94
2024/03/25 00:15:04;;;;;;;13.85;3.40;;;;;;;;;;6159300;23;20231;-95
2024/03/25 00:17:29;;;;;;;11.35;2.90;;;;;;;;;;6184193;23;20005;-95
2024/03/25 00:19:54;;;;;;;16.60;4.22;;;;;;;;;;6185407;23;20004;-95
2024/03/25 00:22:20;;;;;;;12.55;3.50;;;;;;;;;;6159363;23;20313;-94
2024/03/25 00:24:46;;;;;;;10.73;2.80;;;;;;;;;;6184453;23;20009;-94
2024/03/25 00:27:11;;;;;;;10.50;3.00;;;;;;;;;;6184072;23;20001;-96
2024/03/25 00:29:37;;;;;;;15.30;3.83;;;;;;;;;;6159023;23;20001;-94
2024/03/25 00:32:02;;;;;;;13.73;3.13;;;;;;;;;;6158723;23;20008;-94
2024/03/25 00:34:27;;;;;;;15.15;3.85;;;;;;;;;;6159976;23;20219;-95
2024/03/25 00:36:53;;;;;;;11.33;3.60;;;;;;;;;;6159366;23;20392;-94
2024/03/25 00:39:19;;;;;;;15.40;4.28;;;;;;;;;;6158751;23;20728;-96
2024/03/25 00:41:44;;;;;;;6.57;3.03;;;;;;;;;;6159500;23;20004;-95
2024/03/25 00:44:10;;;;;;;10.15;3.30;;;;;;;;;;6159793;23;20005;-94
2024/03/25 00:46:35;;;;;;;11.98;2.92;;;;;;;;;;6159407;23;20062;-95
2024/03/25 00:49:01;;;;;;;9.02;2.90;;;;;;;;;;6159078;23;20332;-94
2024/03/25 00:51:26;;;;;;;13.02;3.63;;;;;;;;;;6159144;23;20036;-96
2024/03/25 00:53:51;;;;;;;12.70;3.30;;;;;;;;;;6159164;23;20040;-95
2024/03/25 00:56:16;;;;;;;14.93;3.20;;;;;;;;;;6158941;23;20263;-95
2024/03/25 00:58:41;;;;;;;16.30;4.20;;;;;;;;;;6159449;23;20566;-95
2024/03/25 01:01:07;;;;;;;17.42;4.25;;;;;;;;;;6158708;23;20532;-94
2024/03/25 01:03:32;;;;;;;10.65;3.38;;;;;;;;;;6159113;23;20001;-94
2024/03/25 01:05:57;;;;;;;12.73;4.03;;;;;;;;;;6158642;23;20005;-95
2024/03/25 01:08:22;;;;;;;7.63;2.85;;;;;;;;;;6158621;23;20067;-96
2024/03/25 01:10:48;;;;;;;13.53;3.67;;;;;;;;;;6158564;23;20055;-95
2024/03/25 01:13:13;;;;;;;9.35;3.40;;;;;;;;;;6158786;23;20250;-95
2024/03/25 01:15:38;;;;;;;11.57;3.30;;;;;;;;;;6158788;23;20001;-94
2024/03/25 01:18:03;;;;;;;15.67;3.57;;;;;;;;;;6159190;23;20227;-94
2024/03/25 01:20:28;;;;;;;9.90;3.55;;;;;;;;;;6158372;23;20615;-95
2024/03/25 01:22:54;;;;;;;10.87;2.83;;;;;;;;;;6159043;23;20005;-94
2024/03/25 01:25:19;;;;;;;11.05;3.55;;;;;;;;;;6159071;23;20254;-94
2024/03/25 01:27:45;;;;;;;12.55;3.42;;;;;;;;;;6159074;23;20028;-95
2024/03/25 01:30:10;;;;;;;10.27;3.27;;;;;;;;;;6158165;23;20008;-95
2024/03/25 01:32:36;;;;;;;23.20;3.63;;;;;;;;;;6183643;23;20218;-95
2024/03/25 01:35:01;;;;;;;10.73;3.35;;;;;;;;;;6158821;23;20092;-94
2024/03/25 01:37:26;;;;;;;12.40;3.15;;;;;;;;;;6158793;23;20003;-94
2024/03/25 01:39:51;;;;;;;11.73;3.65;;;;;;;;;;6158515;23;20256;-95
2024/03/25 01:42:17;;;;;;;10.65;3.40;;;;;;;;;;6158417;23;19993;-95
2024/03/25 01:44:42;;;;;;;14.32;3.03;;;;;;;;;;6158664;23;20039;-94
2024/03/25 01:47:07;;;;;;;10.70;2.70;;;;;;;;;;6158690;23;20439;-95
2024/03/25 01:49:32;;;;;;;14.05;3.40;;;;;;;;;;6158656;23;20689;-95
2024/03/25 01:51:58;;;;;;;16.85;2.83;;;;;;;;;;6159013;23;20033;-95
2024/03/25 01:54:23;;;;;;;11.27;3.00;;;;;;;;;;6183483;23;20074;-95
2024/03/25 01:56:49;;;;;;;8.18;2.35;;;;;;;;;;6158555;23;20008;-94
2024/03/25 01:59:16;;;;;;;13.05;5.25;;;;;;;;;;6182745;23;20436;-96
2024/03/25 02:01:42;;;;;;;12.40;3.03;;;;;;;;;;6158306;23;20013;-95
2024/03/25 02:04:07;;;;;;;15.68;2.97;;;;;;;;;;6183185;23;20003;-95
2024/03/25 02:06:32;;;;;;;24.00;4.28;;;;;;;;;;6158367;23;20037;-95
2024/03/25 02:08:58;;;;;;;10.07;3.25;;;;;;;;;;6182994;23;20004;-94
2024/03/25 02:11:23;;;;;;;13.05;2.83;;;;;;;;;;6158471;23;20332;-95
2024/03/25 02:13:49;;;;;;;15.10;3.15;;;;;;;;;;6158589;23;20001;-95
2024/03/25 02:16:15;;;;;;;8.52;2.97;;;;;;;;;;6183500;23;20100;-95
2024/03/25 02:18:40;;;;;;;11.00;3.00;;;;;;;;;;6183800;23;20477;-93
2024/03/25 02:21:05;;;;;;;12.90;3.00;;;;;;;;;;6157730;23;20018;-94
2024/03/25 02:23:31;;;;;;;16.15;3.40;;;;;;;;;;6158161;23;20483;-95
2024/03/25 02:25:57;;;;;;;10.95;3.42;;;;;;;;;;6182442;23;20037;-94
2024/03/25 02:28:22;;;;;;;15.07;3.65;;;;;;;;;;6158260;23;20001;-94
2024/03/25 02:30:47;;;;;;;16.03;3.67;;;;;;;;;;6186155;23;20001;-94
2024/03/25 02:33:13;;;;;;;10.67;3.40;;;;;;;;;;6186094;23;20541;-94
2024/03/25 02:35:40;;;;;;;11.57;3.00;;;;;;;;;;6184321;23;20524;-93
2024/03/25 02:38:06;;;;;;;17.52;3.67;;;;;;;;;;6184689;23;20377;-94
2024/03/25 02:40:31;;;;;;;13.30;3.25;;;;;;;;;;6183459;23;20001;-94
2024/03/25 02:42:56;;;;;;;13.48;4.15;;;;;;;;;;6159884;23;20088;-93
2024/03/25 02:45:21;;;;;;;17.50;4.47;;;;;;;;;;6159397;23;20079;-92
2024/03/25 02:47:47;;;;;;;6.70;3.20;;;;;;;;;;6159348;23;20001;-93
2024/03/25 02:50:12;;;;;;;17.25;6.28;;;;;;;;;;6183557;23;20231;-92
2024/03/25 02:52:37;;;;;;;13.95;3.40;;;;;;;;;;6159337;23;20004;-94
2024/03/25 02:55:03;;;;;;;11.80;3.67;;;;;;;;;;6159443;23;20438;-92
2024/03/25 02:57:28;;;;;;;12.50;3.78;;;;;;;;;;6185679;23;20741;-93
2024/03/25 02:59:53;;;;;;;12.73;3.17;;;;;;;;;;6158803;23;20337;-93
2024/03/25 03:02:18;;;;;;;16.10;3.60;;;;;;;;;;6185446;23;20662;-93
2024/03/25 03:04:44;;;;;;;16.98;3.50;;;;;;;;;;6184022;23;20246;-93
2024/03/25 03:07:09;;;;;;;13.67;3.80;;;;;;;;;;6184079;23;20087;-94
2024/03/25 03:09:34;;;;;;;10.98;2.90;;;;;;;;;;6185002;23;20761;-93
2024/03/25 03:11:59;;;;;;;12.77;3.53;;;;;;;;;;6185415;23;20005;-93
2024/03/25 03:14:24;;;;;;;14.50;3.30;;;;;;;;;;6183812;23;20223;-90
2024/03/25 03:16:54;;;;;;;7.43;2.95;;;;;;;;;;6185277;23;20551;-93
2024/03/25 03:19:19;;;;;;;8.98;3.15;;;;;;;;;;6185062;23;20079;-93
2024/03/25 03:21:44;;;;;;;9.33;3.43;;;;;;;;;;6185313;23;20001;-93
2024/03/25 03:24:09;;;;;;;11.07;2.67;;;;;;;;;;6185457;23;20242;-91
2024/03/25 03:26:35;;;;;;;18.37;5.70;;;;;;;;;;6185163;23;20227;-90
2024/03/25 03:29:00;;;;;;;13.33;4.30;;;;;;;;;;6185517;23;20543;-93
2024/03/25 03:31:26;;;;;;;9.23;3.13;;;;;;;;;;6181881;23;20689;-94
2024/03/25 03:33:51;;;;;;;10.68;3.25;;;;;;;;;;6185080;23;20317;-94
2024/03/25 03:36:17;;;;;;;10.87;3.33;;;;;;;;;;6184944;23;20007;-92
2024/03/25 03:38:42;;;;;;;17.15;3.72;;;;;;;;;;6185362;23;20253;-94
2024/03/25 03:41:07;;;;;;;13.32;3.30;;;;;;;;;;6182769;23;20019;-92
2024/03/25 03:43:33;;;;;;;9.30;3.77;;;;;;;;;;6183772;23;19997;-93
2024/03/25 03:45:58;;;;;;;15.98;4.35;;;;;;;;;;6183790;23;20250;-92
2024/03/25 03:48:23;;;;;;;11.48;3.53;;;;;;;;;;6183426;23;20009;-93
2024/03/25 03:50:48;;;;;;;16.17;3.63;;;;;;;;;;6184662;23;20001;-92
2024/03/25 03:53:14;;;;;;;16.70;4.70;;;;;;;;;;6185222;23;20293;-91
2024/03/25 03:55:39;;;;;;;8.97;3.13;;;;;;;;;;6183067;23;19997;-92
2024/03/25 03:58:04;;;;;;;13.57;3.40;;;;;;;;;;6184836;23;20277;-92
2024/03/25 04:00:33;;;;;;;11.88;3.42;;;;;;;;;;6186019;23;20005;-91
2024/03/25 04:02:58;;;;;;;13.52;4.85;;;;;;;;;;6185193;23;20004;-91
2024/03/25 04:05:23;;;;;;;8.85;3.05;;;;;;;;;;6185365;23;20012;-92
2024/03/25 04:07:48;;;;;;;13.52;3.78;;;;;;;;;;6185164;23;19997;-91
2024/03/25 04:10:14;;;;;;;9.57;3.50;;;;;;;;;;6185045;23;20032;-91
2024/03/25 04:12:39;;;;;;;13.27;3.67;;;;;;;;;;6183372;23;20226;-92
2024/03/25 04:15:05;;;;;;;11.35;4.00;;;;;;;;;;6184943;23;20231;-91
2024/03/25 04:17:31;;;;;;;10.82;3.40;;;;;;;;;;6184417;23;19996;-91
2024/03/25 04:20:00;;;;;;;15.15;3.08;;;;;;;;;;6183253;23;20033;-92
2024/03/25 04:22:25;;;;;;;9.90;3.90;;;;;;;;;;6184679;23;20050;-92
2024/03/25 04:24:50;;;;;;;12.20;4.40;;;;;;;;;;6184728;23;20068;-91
2024/03/25 04:27:15;;;;;;;23.47;4.07;;;;;;;;;;6184512;23;20285;-92
2024/03/25 04:29:40;;;;;;;16.83;4.82;;;;;;;;;;6183719;23;20212;-92
2024/03/25 04:32:06;;;;;;;10.63;4.03;;;;;;;;;;6183496;23;19997;-91
2024/03/25 04:34:31;;;;;;;14.97;4.40;;;;;;;;;;6182876;23;20310;-91
2024/03/25 04:36:56;;;;;;;11.07;4.43;;;;;;;;;;6184369;23;20269;-91
2024/03/25 04:39:22;;;;;;;15.05;4.55;;;;;;;;;;6184064;23;20341;-92
2024/03/25 04:41:47;;;;;;;12.13;4.78;;;;;;;;;;6184605;23;19993;-92
2024/03/25 04:44:12;;;;;;;14.10;6.18;;;;;;;;;;6184336;23;20073;-91
2024/03/25 04:46:37;;;;;;;13.97;5.07;;;;;;;;;;6184136;23;20001;-92
2024/03/25 04:49:03;;;;;;;12.05;4.25;;;;;;;;;;6184130;23;20219;-93
2024/03/25 04:51:28;;;;;;;12.27;4.43;;;;;;;;;;6184433;23;20008;-92
2024/03/25 04:53:53;;;;;;;18.00;5.23;;;;;;;;;;6184547;23;20032;-92
2024/03/25 04:56:18;;;;;;;10.90;4.57;;;;;;;;;;6183029;23;20250;-92
2024/03/25 04:58:43;;;;;;;12.68;5.07;;;;;;;;;;6183921;23;20674;-92
2024/03/25 05:01:09;;;;;;;17.77;5.33;;;;;;;;;;6182755;23;20005;-91
2024/03/25 05:03:34;;;;;;;12.13;5.10;;;;;;;;;;6157959;23;20697;-92
2024/03/25 05:05:59;;;;;;;13.07;4.90;;;;;;;;;;6158172;23;20694;-92
2024/03/25 05:08:24;;;;;;;11.57;4.50;;;;;;;;;;6183944;23;20222;-92
2024/03/25 05:10:50;;;;;;;13.98;5.28;;;;;;;;;;6183822;23;20276;-92
2024/03/25 05:13:15;;;;;;;20.60;5.70;;;;;;;;;;6184314;23;20369;-92
2024/03/25 05:15:40;;;;;;;16.70;5.38;;;;;;;;;;6184290;23;19997;-92
2024/03/25 05:18:05;;;;;;;11.90;5.50;;;;;;;;;;6157705;23;20000;-91
2024/03/25 05:20:31;;;;;;;12.48;5.45;;;;;;;;;;6184291;23;20211;-92
2024/03/25 05:22:56;;;;;;;13.83;5.70;;;;;;;;;;6183965;23;20311;-90
2024/03/25 05:25:28;;;;;;;11.90;5.37;;;;;;;;;;6184251;23;20258;-91
2024/03/25 05:27:53;;;;;;;13.93;5.65;;;;;;;;;;6183840;23;20282;-91
2024/03/25 05:30:18;;;;;;;14.80;4.80;;;;;;;;;;6184203;23;20044;-91
2024/03/25 05:32:44;;;;;;;12.02;6.10;;;;;;;;;;6158044;23;20001;-91
2024/03/25 05:35:10;;;;;;;9.90;5.60;;;;;;;;;;6184425;23;20003;-91
2024/03/25 05:37:36;;;;;;;13.73;6.43;;;;;;;;;;6184426;23;20222;-92
2024/03/25 05:40:01;;;;;;;7.57;4.90;;;;;;;;;;6157348;23;20323;-92
2024/03/25 05:42:26;;;;;;;9.18;4.60;;;;;;;;;;6184110;23;20046;-93
2024/03/25 05:44:51;;;;;;;14.97;5.57;;;;;;;;;;6184095;23;20001;-92
2024/03/25 05:47:17;;;;;;;12.38;5.22;;;;;;;;;;6157549;23;20243;-93
2024/03/25 05:49:42;;;;;;;9.43;4.38;;;;;;;;;;6183487;23;19998;-91
2024/03/25 05:52:07;;;;;;;11.70;4.93;;;;;;;;;;6183948;23;19997;-93
2024/03/25 05:54:32;;;;;;;9.40;5.47;;;;;;;;;;6184033;23;20419;-92
2024/03/25 05:56:58;;;;;;;11.35;5.25;;;;;;;;;;6183749;23;20250;-91
2024/03/25 05:59:23;;;;;;;13.03;4.70;;;;;;;;;;6183205;23;19993;-91
2024/03/25 06:01:48;;;;;;;11.00;5.40;;;;;;;;;;6184088;23;20235;-91
2024/03/25 06:04:14;;;;;;;14.87;4.80;;;;;;;;;;6184961;23;20211;-92
2024/03/25 06:06:39;;;;;;;54.50;7.13;;;;;;;;;;6185573;23;20222;-91
2024/03/25 06:09:05;;;;;;;13.70;5.50;;;;;;;;;;6185345;23;19993;-91
2024/03/25 06:11:30;;;;;;;12.70;5.63;;;;;;;;;;6185731;23;20258;-92
2024/03/25 06:13:56;;;;;;;9.00;5.05;;;;;;;;;;6184060;23;19997;-92
2024/03/25 06:16:21;;;;;;;11.17;4.97;;;;;;;;;;6185913;23;19993;-91
2024/03/25 06:18:46;;;;;;;6.07;4.38;;;;;;;;;;6185226;23;20550;-92
2024/03/25 06:21:12;;;;;;;12.70;4.30;;;;;;;;;;6185765;23;20431;-92
2024/03/25 06:23:37;;;;;;;9.32;5.30;;;;;;;;;;6185649;23;20693;-92
2024/03/25 06:26:02;;;;;;;10.53;4.27;;;;;;;;;;6185535;23;20009;-92
2024/03/25 06:28:28;;;;;;;11.40;5.28;;;;;;;;;;6185388;23;20215;-91
2024/03/25 06:36:21;;;;;;;8.00;4.55;;;;;;;;;;6185869;23;20012;-91
2024/03/25 06:38:46;;;;;;;7.18;3.60;;;;;;;;;;6183792;23;20001;-92
2024/03/25 06:41:11;;;;;;;9.68;4.10;;;;;;;;;;6183945;23;20043;-92
2024/03/25 06:43:39;;;;;;;7.38;4.47;;;;;;;;;;6183872;23;20424;-92
2024/03/25 06:46:06;;;;;;;10.48;4.03;;;;;;;;;;6185374;23;20009;-91
2024/03/25 06:48:31;;;;;;;8.32;4.10;;;;;;;;;;6183449;23;20001;-91
2024/03/25 06:50:57;;;;;;;15.43;4.75;;;;;;;;;;6183684;23;20001;-91
2024/03/25 06:53:23;;;;;;;9.15;3.83;;;;;;;;;;6183931;23;19997;-92
2024/03/25 06:56:06;;;;;;;5.07;3.20;;;;;;;;;;6185399;23;20355;-91
2024/03/25 06:58:31;;;;;;;8.15;2.53;;;;;;;;;;6183701;23;20230;-92
2024/03/25 07:01:03;;;;;;;8.05;3.28;;;;;;;;;;6183801;23;20013;-92
2024/03/25 07:03:28;;;;;;;11.40;3.97;;;;;;;;;;6185415;23;20001;-93
2024/03/25 07:05:55;;;;;;;9.03;2.57;;;;;;;;;;6184887;23;20530;-91
2024/03/25 07:08:20;;;;;;;9.10;2.80;;;;;;;;;;6185543;23;20291;-92
2024/03/25 07:10:45;;;;;;;6.40;2.47;;;;;;;;;;6185462;23;20028;-91
2024/03/25 07:13:11;;;;;;;6.35;2.95;;;;;;;;;;6185238;23;19993;-92
2024/03/25 07:15:36;;;;;;;11.23;2.83;;;;;;;;;;6184279;23;19993;-91
2024/03/25 07:18:02;;;;;;;10.90;2.80;;;;;;;;;;6185261;23;20039;-92
2024/03/25 07:20:27;;;;;;;9.38;2.75;;;;;;;;;;6185186;23;20008;-91
2024/03/25 07:22:55;;;;;;;15.88;2.65;;;;;;;;;;6159503;23;19993;-91
2024/03/25 07:25:20;;;;;;;6.50;2.00;;;;;;;;;;6158102;23;20383;-91
2024/03/25 07:27:45;;;;;;;10.32;2.72;;;;;;;;;;6184265;23;20003;-92
2024/03/25 07:30:11;;;;;;;10.43;2.53;;;;;;;;;;6158870;23;20001;-91
2024/03/25 07:32:36;;;;;;;11.00;3.05;;;;;;;;;;6185203;23;20685;-91
2024/03/25 07:35:01;;;;;;;13.52;2.85;;;;;;;;;;6184732;23;20031;-91
2024/03/25 07:37:26;;;;;;;15.15;3.25;;;;;;;;;;6158506;23;20071;-89
2024/03/25 07:39:52;;;;;;;9.53;2.33;;;;;;;;;;6158922;23;19993;-91
2024/03/25 07:42:18;;;;;;;15.00;3.35;;;;;;;;;;6158498;23;20277;-91
2024/03/25 07:44:43;;;;;;;12.82;2.25;;;;;;;;;;6158308;23;20036;-93
2024/03/25 07:47:08;;;;;;;18.10;2.70;;;;;;;;;;6158633;23;20005;-92
2024/03/25 07:49:33;;;;;;;9.57;2.70;;;;;;;;;;6158650;23;20368;-93
2024/03/25 07:51:59;;;;;;;26.58;4.03;;;;;;;;;;6158501;23;20329;-91
2024/03/25 07:54:25;;;;;;;16.85;5.30;;;;;;;;;;6183664;23;20008;-90
2024/03/25 07:56:51;;;;;;;7.82;2.53;;;;;;;;;;6158503;23;20005;-92
2024/03/25 07:59:17;;;;;;;13.40;2.58;;;;;;;;;;6185117;23;20365;-92
2024/03/25 08:01:43;;;;;;;15.40;2.72;;;;;;;;;;6158696;23;20088;-91
2024/03/25 08:04:08;;;;;;;9.90;2.72;;;;;;;;;;6158580;23;20417;-92
2024/03/25 08:06:34;;;;;;;16.90;4.18;;;;;;;;;;6184269;23;20420;-92
2024/03/25 08:08:59;;;;;;;21.13;3.03;;;;;;;;;;6158222;23;19997;-92
2024/03/25 08:11:24;;;;;;;14.20;2.75;;;;;;;;;;6158483;23;20005;-92
2024/03/25 08:13:49;;;;;;;26.30;3.57;;;;;;;;;;6158440;23;20364;-91
2024/03/25 08:16:14;;;;;;;17.40;2.63;;;;;;;;;;6184270;23;20678;-92
2024/03/25 08:18:40;;;;;;;14.27;3.03;;;;;;;;;;6184830;23;20732;-91
2024/03/25 08:21:05;;;;;;;14.23;2.67;;;;;;;;;;6184676;23;20674;-91
2024/03/25 08:23:30;;;;;;;15.60;2.90;;;;;;;;;;6183820;23;20246;-94
2024/03/25 08:25:55;;;;;;;16.70;2.80;;;;;;;;;;6155925;23;20345;-92
2024/03/25 08:28:20;;;;;;;12.65;2.63;;;;;;;;;;6182506;23;20243;-91
2024/03/25 08:30:46;;;;;;;14.02;3.08;;;;;;;;;;6179982;23;20479;-91
2024/03/25 08:33:11;;;;;;;14.90;2.47;;;;;;;;;;6182396;23;20322;-91
2024/03/25 08:35:38;;;;;;;24.17;4.87;;;;;;;;;;6183005;23;20001;-91
2024/03/25 08:38:03;;;;;;;19.35;3.00;;;;;;;;;;6180614;23;20302;-91
2024/03/25 08:40:28;;;;;;;8.45;2.58;;;;;;;;;;6181594;23;20043;-91
2024/03/25 08:42:53;;;;;;;17.83;2.77;;;;;;;;;;6183948;23;20008;-91
2024/03/25 08:45:19;;;;;;;15.67;2.63;;;;;;;;;;6191572;23;20253;-90
2024/03/25 08:47:44;;;;;;;9.73;2.70;;;;;;;;;;6197335;23;20215;-91
2024/03/25 08:50:09;;;;;;;12.60;2.43;;;;;;;;;;6167255;23;20325;-90
2024/03/25 08:52:34;;;;;;;14.80;4.03;;;;;;;;;;6192117;23;20255;-91
2024/03/25 08:54:59;;;;;;;13.77;2.20;;;;;;;;;;6171503;23;20223;-90
2024/03/25 08:57:25;;;;;;;15.43;2.60;;;;;;;;;;6193178;23;20708;-90
2024/03/25 08:59:50;;;;;;;13.27;2.63;;;;;;;;;;6199940;23;20223;-91
2024/03/25 09:02:15;;;;;;;15.82;3.67;;;;;;;;;;6196502;23;20275;-91
2024/03/25 09:04:40;;;;;;;14.03;2.63;;;;;;;;;;6181169;23;20008;-92
2024/03/25 09:07:06;;;;;;;17.13;2.77;;;;;;;;;;6175755;23;20231;-92
2024/03/25 09:12:15;;;;;;;15.93;2.70;;;;;;;;;;6176490;23;20564;-92
2024/03/25 09:14:40;;;;;;;19.43;4.03;;;;;;;;;;6180103;23;20080;-91
2024/03/25 09:17:05;;;;;;;18.00;3.53;;;;;;;;;;6183300;23;20238;-93
2024/03/25 09:19:30;;;;;;;15.13;3.22;;;;;;;;;;6182190;23;20223;-90
2024/03/25 09:21:56;;;;;;;13.63;2.77;;;;;;;;;;6183125;23;19997;-93
2024/03/25 09:24:21;;;;;;;10.73;2.30;;;;;;;;;;6185500;23;20227;-95
2024/03/25 09:26:49;;;;;;;19.05;3.75;;;;;;;;;;6192523;23;19986;-94
2024/03/25 09:29:14;;;;;;;17.10;3.58;;;;;;;;;;6181821;23;19997;-90
2024/03/25 09:31:39;;;;;;;12.23;2.85;;;;;;;;;;6183960;23;20007;-94
2024/03/25 09:34:05;;;;;;;15.00;3.33;;;;;;;;;;6183005;23;20001;-93
2024/03/25 09:36:30;;;;;;;15.65;3.75;;;;;;;;;;6182011;23;20024;-93
2024/03/25 09:38:55;;;;;;;19.02;3.67;;;;;;;;;;6182604;23;20424;-94
2024/03/25 09:41:21;;;;;;;11.90;3.97;;;;;;;;;;6183184;23;20047;-93
2024/03/25 09:43:54;;;;;;;18.08;3.05;;;;;;;;;;6185676;23;20231;-94
2024/03/25 09:46:20;;;;;;;28.48;4.72;;;;;;;;;;6180744;23;20005;-93
2024/03/25 09:48:45;;;;;;;11.93;2.50;;;;;;;;;;6183706;23;20052;-93
2024/03/25 09:51:10;;;;;;;14.60;2.80;;;;;;;;;;6181567;23;19997;-94
2024/03/25 09:53:35;;;;;;;15.65;3.00;;;;;;;;;;6181848;23;20051;-93
2024/03/25 09:56:01;;;;;;;10.48;2.33;;;;;;;;;;6183590;23;19997;-93
2024/03/25 09:58:27;;;;;;;11.63;2.15;;;;;;;;;;6182472;23;20001;-92
2024/03/25 10:00:52;;;;;;;13.27;2.33;;;;;;;;;;6184354;23;20080;-94
2024/03/25 10:03:18;;;;;;;14.05;2.42;;;;;;;;;;6182474;23;20048;-94
2024/03/25 10:05:43;;;;;;;12.52;2.95;;;;;;;;;;6182200;23;20084;-95
2024/03/25 10:08:09;;;;;;;16.42;4.43;;;;;;;;;;6182149;23;20005;-93
2024/03/25 10:10:36;;;;;;;14.40;2.50;;;;;;;;;;6179873;23;20005;-91
2024/03/25 10:13:02;;;;;;;12.90;2.55;;;;;;;;;;6180455;23;20001;-91
2024/03/25 10:15:27;;;;;;;13.32;2.60;;;;;;;;;;6178976;23;20015;-91
2024/03/25 10:17:52;;;;;;;22.33;2.58;;;;;;;;;;6179408;23;20479;-94
2024/03/25 10:20:18;;;;;;;14.43;2.80;;;;;;;;;;6179658;23;20398;-92
2024/03/25 10:22:44;;;;;;;16.05;2.15;;;;;;;;;;6180438;23;20570;-91
2024/03/25 10:25:28;;;;;;;16.27;2.05;;;;;;;;;;6181047;23;20012;-93
2024/03/25 10:27:53;;;;;;;9.65;1.98;;;;;;;;;;6180028;23;20084;-94
2024/03/25 10:30:19;;;;;;;12.40;2.40;;;;;;;;;;6181346;23;20029;-91
2024/03/25 10:32:44;;;;;;;16.30;3.28;;;;;;;;;;6181150;23;20630;-92
2024/03/25 10:35:09;;;;;;;17.07;2.33;;;;;;;;;;6184040;23;19999;-95
2024/03/25 10:37:35;;;;;;;9.82;1.50;;;;;;;;;;6183050;23;20314;-93
2024/03/25 10:40:00;;;;;;;10.00;2.00;;;;;;;;;;6180773;23;19994;-95
2024/03/25 10:42:26;;;;;;;10.30;1.60;;;;;;;;;;6189306;23;20027;-96
2024/03/25 10:44:52;;;;;;;12.18;1.63;;;;;;;;;;6183972;23;20395;-94
2024/03/25 10:47:23;;;;;;;9.45;1.52;;;;;;;;;;6183862;23;19997;-95
2024/03/25 10:49:56;;;;;;;22.52;2.42;;;;;;;;;;6182425;23;20008;-94
2024/03/25 10:52:21;;;;;;;8.88;1.75;;;;;;;;;;6184327;23;20004;-93
2024/03/25 10:54:47;;;;;;;10.15;1.85;;;;;;;;;;6182228;23;20000;-92
2024/03/25 10:57:13;;;;;;;11.55;1.52;;;;;;;;;;6184025;23;20072;-91
2024/03/25 10:59:42;;;;;;;10.40;1.90;;;;;;;;;;6157876;23;20001;-96
2024/03/25 11:02:08;;;;;;;7.03;1.27;;;;;;;;;;6182016;23;20005;-92
2024/03/25 11:04:33;;;;;;;10.00;1.40;;;;;;;;;;6184670;23;20012;-92
2024/03/25 11:07:12;;;;;;;19.13;1.98;;;;;;;;;;6182012;23;20368;-91
2024/03/25 11:09:37;;;;;;;10.90;1.30;;;;;;;;;;6181530;23;20397;-92
2024/03/25 11:12:03;;;;;;;5.47;1.13;;;;;;;;;;6176160;23;20001;-92
2024/03/25 11:14:28;;;;;;;6.90;1.60;;;;;;;;;;6180241;23;20488;-91
2024/03/25 11:16:54;;;;;;;6.20;1.50;;;;;;;;;;6152535;23;20005;-92
2024/03/25 11:19:20;;;;;;;12.13;2.40;;;;;;;;;;6179763;23;20079;-91
2024/03/25 11:21:46;;;;;;;7.15;1.55;;;;;;;;;;6177659;23;20001;-90
2024/03/25 11:24:11;;;;;;;9.80;1.60;;;;;;;;;;6179652;23;20008;-90
2024/03/25 11:26:40;;;;;;;9.52;1.65;;;;;;;;;;6178185;23;20255;-92
2024/03/25 11:29:05;;;;;;;9.85;1.52;;;;;;;;;;6176548;23;20004;-92
2024/03/25 11:31:32;;;;;;;16.47;1.97;;;;;;;;;;6149047;23;20427;-91
2024/03/25 11:34:03;;;;;;;13.63;1.40;;;;;;;;;;6173066;23;20315;-91
2024/03/25 11:36:30;;;;;;;8.70;1.48;;;;;;;;;;6177925;23;19997;-92
2024/03/25 11:39:04;;;;;;;12.35;1.45;;;;;;;;;;6181010;23;19997;-91
2024/03/25 11:41:30;;;;;;;7.88;1.33;;;;;;;;;;6179983;23;20416;-90
2024/03/25 11:43:55;;;;;;;9.52;1.85;;;;;;;;;;6181634;23;20007;-92
2024/03/25 11:46:24;;;;;;;11.60;2.40;;;;;;;;;;6154772;23;20013;-93
2024/03/25 11:48:50;;;;;;;10.73;2.03;;;;;;;;;;6180569;23;20083;-96
2024/03/25 11:51:19;;;;;;;10.18;2.17;;;;;;;;;;6154984;23;20005;-90
2024/03/25 11:53:44;;;;;;;13.75;1.77;;;;;;;;;;6180132;23;20001;-94
2024/03/25 11:56:11;;;;;;;10.93;2.27;;;;;;;;;;6155419;23;19997;-93
2024/03/25 11:58:37;;;;;;;8.10;1.77;;;;;;;;;;6184041;23;20242;-93
2024/03/25 12:01:02;;;;;;;14.52;2.88;;;;;;;;;;6182968;23;20004;-93
2024/03/25 12:03:27;;;;;;;9.20;1.90;;;;;;;;;;6182158;23;20055;-94
2024/03/25 12:05:52;;;;;;;10.88;2.35;;;;;;;;;;6180695;23;20071;-93
2024/03/25 12:08:18;;;;;;;10.00;2.45;;;;;;;;;;6181207;23;20005;-93
2024/03/25 12:13:27;;;;;;;10.55;2.10;;;;;;;;;;6183503;23;20685;-92
2024/03/25 12:15:53;;;;;;;13.75;3.38;;;;;;;;;;6180868;23;20001;-93
2024/03/25 12:18:21;;;;;;;11.13;2.47;;;;;;;;;;6179997;23;20328;-94
2024/03/25 12:20:46;;;;;;;8.30;1.75;;;;;;;;;;6186315;23;20032;-93
2024/03/25 12:23:12;;;;;;;10.93;2.08;;;;;;;;;;6187764;23;19997;-92
2024/03/25 12:25:37;;;;;;;9.40;1.55;;;;;;;;;;6182567;23;20009;-92
2024/03/25 12:28:07;;;;;;;8.82;2.10;;;;;;;;;;6181607;23;19997;-95
2024/03/25 12:30:33;;;;;;;10.38;1.98;;;;;;;;;;6181191;23;20008;-95
2024/03/25 12:33:00;;;;;;;12.70;1.70;;;;;;;;;;6181897;23;20001;-92
2024/03/25 12:35:26;;;;;;;10.23;2.50;;;;;;;;;;6182253;23;19997;-93
2024/03/25 12:37:51;;;;;;;12.13;2.70;;;;;;;;;;6180387;23;20005;-93
2024/03/25 12:40:35;;;;;;;12.48;1.98;;;;;;;;;;6180875;23;20064;-93
2024/03/25 12:43:00;;;;;;;9.60;2.03;;;;;;;;;;6181580;23;20480;-94
2024/03/25 12:45:25;;;;;;;12.90;2.10;;;;;;;;;;6180758;23;20017;-95
2024/03/25 12:47:50;;;;;;;15.10;3.07;;;;;;;;;;6181141;23;20674;-96
2024/03/25 12:50:16;;;;;;;11.75;2.65;;;;;;;;;;6181612;23;20227;-94
2024/03/25 12:52:41;;;;;;;9.55;2.22;;;;;;;;;;6181744;23;20004;-94
2024/03/25 12:55:06;;;;;;;9.03;2.47;;;;;;;;;;6182025;23;20462;-94
2024/03/25 12:57:31;;;;;;;12.77;2.83;;;;;;;;;;6179275;23;20705;-94
2024/03/25 12:59:57;;;;;;;9.67;3.00;;;;;;;;;;6181362;23;20442;-93
2024/03/25 13:02:22;;;;;;;18.48;3.05;;;;;;;;;;6182689;23;20658;-93
2024/03/25 13:04:47;;;;;;;11.52;3.20;;;;;;;;;;6180423;23;20135;-93
2024/03/25 13:07:13;;;;;;;14.00;3.97;;;;;;;;;;6180369;23;20305;-94
2024/03/25 13:09:38;;;;;;;17.08;4.00;;;;;;;;;;6179658;23;20642;-93
2024/03/25 13:12:03;;;;;;;13.63;3.50;;;;;;;;;;6179865;23;20088;-94
2024/03/25 13:14:29;;;;;;;12.27;3.50;;;;;;;;;;6179493;23;20001;-94
2024/03/25 13:16:54;;;;;;;12.80;3.25;;;;;;;;;;6180477;23;20024;-93
2024/03/25 13:19:20;;;;;;;8.90;3.22;;;;;;;;;;6181874;23;19993;-93
2024/03/25 13:21:45;;;;;;;14.33;4.33;;;;;;;;;;6180534;23;20009;-95
2024/03/25 13:24:10;;;;;;;9.73;2.85;;;;;;;;;;6181403;23;20233;-94
2024/03/25 13:26:35;;;;;;;12.10;3.00;;;;;;;;;;6182685;23;20036;-94
2024/03/25 13:29:01;;;;;;;10.02;3.35;;;;;;;;;;6179570;23;20226;-94
2024/03/25 13:31:26;;;;;;;11.35;2.88;;;;;;;;;;6180701;23;20419;-94
2024/03/25 13:33:52;;;;;;;12.55;3.03;;;;;;;;;;6179904;23;20080;-93
2024/03/25 13:36:17;;;;;;;13.88;3.97;;;;;;;;;;6180301;23;20048;-94
2024/03/25 13:38:42;;;;;;;11.10;3.33;;;;;;;;;;6180701;23;20085;-94
2024/03/25 13:41:07;;;;;;;12.23;2.55;;;;;;;;;;6180799;23;19997;-93
2024/03/25 13:43:33;;;;;;;7.13;2.15;;;;;;;;;;6180336;23;20072;-93
2024/03/25 13:45:58;;;;;;;12.38;2.22;;;;;;;;;;6181540;23;20016;-94
2024/03/25 13:48:23;;;;;;;9.45;2.00;;;;;;;;;;6180490;23;20004;-93
2024/03/25 13:50:49;;;;;;;9.40;1.70;;;;;;;;;;6180881;23;20442;-94
2024/03/25 13:53:14;;;;;;;11.88;1.48;;;;;;;;;;6180317;23;20483;-93
2024/03/25 13:55:39;;;;;;;8.17;1.43;;;;;;;;;;6181881;23;20067;-94
2024/03/25 13:58:05;;;;;;;7.18;1.55;;;;;;;;;;6179477;23;20219;-94
2024/03/25 14:00:30;;;;;;;10.05;1.77;;;;;;;;;;6180673;23;20012;-94
2024/03/25 14:02:56;;;;;;;12.30;1.58;;;;;;;;;;6155361;23;19993;-93
2024/03/25 14:05:23;;;;;;;9.35;1.52;;;;;;;;;;6155690;23;20055;-93
2024/03/25 14:07:48;;;;;;;11.68;1.73;;;;;;;;;;6182259;23;20229;-93
2024/03/25 14:10:13;;;;;;;9.35;2.72;;;;;;;;;;6155411;23;20516;-93
2024/03/25 14:12:38;;;;;;;9.32;2.08;;;;;;;;;;6156272;23;19997;-93
2024/03/25 14:15:04;;;;;;;9.07;1.77;;;;;;;;;;6182747;23;20055;-92
2024/03/25 14:17:29;;;;;;;9.00;1.63;;;;;;;;;;6180262;23;20012;-94
2024/03/25 14:19:56;;;;;;;8.85;1.73;;;;;;;;;;6155532;23;20111;-94
2024/03/25 14:22:21;;;;;;;9.32;1.48;;;;;;;;;;6179956;23;19997;-93
2024/03/25 14:24:46;;;;;;;8.75;1.77;;;;;;;;;;6155862;23;20084;-94
2024/03/25 14:27:12;;;;;;;9.23;1.58;;;;;;;;;;6157368;23;20011;-93
2024/03/25 14:29:37;;;;;;;12.60;2.08;;;;;;;;;;6183227;23;20005;-93
2024/03/25 14:32:03;;;;;;;7.53;1.95;;;;;;;;;;6157919;23;20008;-94
2024/03/25 14:34:28;;;;;;;13.82;1.58;;;;;;;;;;6183721;23;20005;-94